Camp Pendleton, CA

11:10 AM PDT on September 02, 2014 (GMT -0700)
Camp Pendleton Marine Corps Air Station | Change Station
CLOSE
Current Station
Airport
Location: Camp Pendleton,
Elevation: 75 ft
Nearby Weather Stations

Elev 75 ft 33.30 °N, 117.36 °W | Updated 16 minutes ago

Haze
Haze
78 °F
Feels Like 78 °F
N
6
Wind Variable Wind from Variable

Today
High -- | Low -- °F
--% Chance of Precip.
Yesterday
High -- | Low -- °F
Precip. -- in
6:24 AM 7:13 PM
First Quarter, 53% visible
Pressure 29.84 in
Visibility 6.0 miles
Clouds Clear
Dew Point 60 °F
Humidity 54%
Rainfall 0.00 in
Snow Depth Not available.
UV 8 out of 12
Pollen 7.80 out of 12
Ozone Good
PM2.5 Moderate
Flu Activity Not available.
METAR KNFG 021754Z AUTO VRB05KT 6SM HZ CLR 26/16 A2984 RMK AO2 SLP104 T02560156 10256 20194 58006

More Conditions Fewer Conditions

Pressure 29.84 in
Visibility 6.0 miles
Clouds Clear
Dew Point 60 °F
Humidity 54%
Rainfall 0.00 in
Snow Depth Not available.
UV 8 out of 12
Pollen 7.80 out of 12
Ozone Good
PM2.5 Moderate
Flu Activity Not available.
METAR KNFG 021754Z AUTO VRB05KT 6SM HZ CLR 26/16 A2984 RMK AO2 SLP104 T02560156 10256 20194 58006

More Conditions Fewer Conditions

10-Day Weather Forecast

Almanac

Astronomy

Sep. 02, 2014 Rise Set
Actual Time 6:24 AM PDT 7:13 PM PDT
Civil Twilight 5:59 AM PDT 7:38 PM PDT
Nautical Twilight 5:29 AM PDT 8:08 PM PDT
Astronomical Twilight 4:58 AM PDT 8:38 PM PDT
Moon 1:51 PM PDT No Moon Set
Length of Visible Light 13h 39m
Length of Day
12h 48m
Tomorrow will be 1m 59s shorter.
First Quarter, 53% of the Moon is Illuminated
Today
First Quarter
Sep 8
Full
Sep 15
Last Quarter
Sep 24
New
Oct 1
First Quarter

Today's Extremes

State Highs State Lows

Community

WunderPhotos

Upload Photos

1,749,723 photos uploaded!

WunderBlogs® & News

Nearby

Air Quality

  Air Quality AQ Index Pollutant
Yesterday Moderate
PM2.5
Yesterday Good
OZONE
Current Moderate
PM2.5
Current Good
OZONE
Tuesday Good
PM2.5

Snow Depth

Station Depth Elevation
Summit Meadow 0 in 9122 ft
Blue Lakes 0 in 8000 ft
Adin Mountain 0 in 6200 ft
Cedar Pass 0 in 7100 ft
Crowder Flat 0 in 5100 ft

Earthquake Activity

City Distance Mag. Time & Date
Holtville, California 118 miles 2.5 5:43 PM PDT
2014-09-01
Holtville, California 119 miles 2.5 5:26 PM PDT
2014-09-01
Minimum magnitude displayed is 2.5.

Coastal Water Temperatures

Place Temperature
La Jolla, CA 71.1 °F
San Diego, CA 75.0 °F

Nearby Weather Stations